17 | 11 | 2019

Daten Vortag

Wetterdaten von 10m Höhe gemessen, Station2

Datum / Zeit Intervall min Luftfeuchte % Temperatur °C absolut Luftdruck hPa Wind m/s Windbö m/s Richtung Relative Luftdruck hPa Taupunkt °C Windchill °C Niederschlag mm
16-11-2019 00:15 5 80 8.8 1004.8 1.1 2.5 NNE 1006.2 5.6 8.8 0.0
16-11-2019 00:20 5 80 8.8 1004.8 3.6 6.1 NE 1006.2 5.6 8.8 0.0
16-11-2019 00:25 5 80 8.8 1004.6 3.6 5.0 N 1006.0 5.6 8.8 0.0
16-11-2019 00:30 5 80 8.8 1004.6 0.0 0.0 NE 1006.0 5.6 8.8 0.0
16-11-2019 00:35 5 80 8.8 1004.5 1.1 3.6 N 1005.9 5.6 8.8 0.0
16-11-2019 00:40 5 80 8.8 1004.7 0.0 0.0 NE 1006.1 5.6 8.8 0.0
16-11-2019 00:45 5 80 8.8 1004.6 0.0 1.1 NNW 1006.0 5.6 8.8 0.0
16-11-2019 00:50 5 81 8.8 1004.5 0.0 2.5 E 1005.9 5.7 8.8 0.0
16-11-2019 00:55 5 81 8.8 1004.5 2.5 3.6 N 1005.9 5.7 8.8 0.0
16-11-2019 01:00 5 81 8.8 1004.5 2.5 3.6 NNE 1005.9 5.7 8.8 0.0
16-11-2019 01:05 5 81 8.8 1004.5 0.0 1.1 NE 1005.9 5.7 8.8 0.0
16-11-2019 01:10 5 81 8.8 1004.6 0.0 0.0 NE 1006.0 5.7 8.8 0.0
16-11-2019 01:15 5 81 8.9 1004.5 0.0 1.1 NEE 1005.9 5.8 8.9 0.0
16-11-2019 01:20 5 81 8.9 1004.5 0.0 0.0 NE 1005.9 5.8 8.9 0.0
16-11-2019 01:25 5 81 9.0 1004.6 3.6 7.2 NE 1006.0 5.9 9.0 0.0
16-11-2019 01:30 5 81 9.0 1004.7 3.6 6.1 NE 1006.1 5.9 9.0 0.0
16-11-2019 01:35 5 81 9.0 1004.7 0.0 0.0 NE 1006.1 5.9 9.0 0.0
16-11-2019 01:40 5 81 9.0 1004.7 0.0 1.1 E 1006.1 5.9 9.0 0.0
16-11-2019 01:45 5 81 9.0 1004.7 0.0 0.0 NE 1006.1 5.9 9.0 0.0
16-11-2019 01:50 5 81 9.0 1004.7 0.0 0.0 NE 1006.1 5.9 9.0 0.0
16-11-2019 01:55 5 81 9.0 1004.5 0.0 0.0 N 1005.9 5.9 9.0 0.0
16-11-2019 02:00 5 81 9.0 1004.6 0.0 0.0 NEE 1006.0 5.9 9.0 0.0
16-11-2019 02:05 5 81 9.0 1004.3 0.0 0.0 N 1005.7 5.9 9.0 0.0
16-11-2019 02:10 5 81 9.0 1004.2 0.0 1.1 N 1005.6 5.9 9.0 0.0
16-11-2019 02:15 5 81 9.0 1004.0 0.0 2.5 N 1005.4 5.9 9.0 0.0
16-11-2019 02:20 5 81 9.0 1003.8 0.0 2.5 N 1005.2 5.9 9.0 0.0
16-11-2019 02:25 5 81 8.9 1003.8 1.1 3.6 NE 1005.2 5.8 8.9 0.0
16-11-2019 02:30 5 81 8.9 1003.8 2.5 3.6 N 1005.2 5.8 8.9 0.0
16-11-2019 02:35 5 81 8.9 1003.6 0.0 1.1 NE 1005.0 5.8 8.9 0.0
16-11-2019 02:40 5 81 9.0 1003.6 0.0 1.1 NE 1005.0 5.9 9.0 0.0
16-11-2019 02:45 5 81 9.0 1003.7 1.1 3.6 NE 1005.1 5.9 9.0 0.0
16-11-2019 02:50 5 81 8.9 1003.6 0.0 1.1 NE 1005.0 5.8 8.9 0.0
16-11-2019 02:55 5 81 8.9 1003.7 2.5 3.6 N 1005.1 5.8 8.9 0.0
16-11-2019 03:00 5 81 8.8 1003.9 0.0 0.0 E 1005.3 5.7 8.8 0.0
16-11-2019 03:05 5 81 8.8 1003.8 1.1 2.5 E 1005.2 5.7 8.8 0.0
16-11-2019 03:10 5 81 8.9 1003.9 0.0 0.0 E 1005.3 5.8 8.9 0.0
16-11-2019 03:15 5 81 8.9 1003.8 1.1 2.5 NE 1005.2 5.8 8.9 0.0
16-11-2019 03:20 5 81 8.9 1003.8 0.0 0.0 NE 1005.2 5.8 8.9 0.0
16-11-2019 03:25 5 81 8.8 1003.8 0.0 0.0 E 1005.2 5.7 8.8 0.0
16-11-2019 03:30 5 81 8.8 1003.8 0.0 0.0 E 1005.2 5.7 8.8 0.0
16-11-2019 03:35 5 81 8.9 1003.7 0.0 0.0 E 1005.1 5.8 8.9 0.0
16-11-2019 03:40 5 81 9.0 1003.8 0.0 0.0 E 1005.2 5.9 9.0 0.0
16-11-2019 03:45 5 81 9.0 1003.4 0.0 0.0 NE 1004.8 5.9 9.0 0.0
16-11-2019 03:50 5 82 9.0 1003.2 1.1 3.6 NE 1004.6 6.1 9.0 0.0
16-11-2019 03:55 5 82 9.0 1003.0 0.0 0.0 E 1004.4 6.1 9.0 0.0
16-11-2019 04:00 5 82 9.0 1003.0 0.0 0.0 NE 1004.4 6.1 9.0 0.0
16-11-2019 04:05 5 82 9.0 1002.6 0.0 2.5 NE 1004.0 6.1 9.0 0.0
16-11-2019 04:10 5 82 9.0 1002.5 3.6 5.0 N 1003.9 6.1 9.0 0.0
16-11-2019 04:15 5 81 8.8 1002.7 2.5 5.0 SE 1004.1 5.7 8.8 0.0
16-11-2019 04:20 5 81 8.8 1002.3 1.1 5.0 NNE 1003.7 5.7 8.8 0.0
16-11-2019 04:25 5 82 8.7 1002.1 0.0 0.0 NNE 1003.5 5.8 8.7 0.0
16-11-2019 04:30 5 82 8.7 1002.1 2.5 5.0 NE 1003.5 5.8 8.7 0.0
16-11-2019 04:35 5 82 8.6 1002.1 0.0 0.0 NE 1003.5 5.7 8.6 0.0
16-11-2019 04:40 5 82 8.7 1002.3 1.1 2.5 E 1003.7 5.8 8.7 0.0
16-11-2019 04:45 5 82 8.6 1002.5 0.0 0.0 E 1003.9 5.7 8.6 0.0
16-11-2019 04:50 5 82 8.7 1002.5 5.0 7.2 NE 1003.9 5.8 8.7 0.0
16-11-2019 04:55 5 83 8.8 1002.4 1.1 3.6 NE 1003.8 6.1 8.8 0.0
16-11-2019 05:00 5 83 8.8 1002.0 0.0 0.0 NE 1003.4 6.1 8.8 0.0
16-11-2019 05:05 5 83 8.8 1002.2 0.0 0.0 N 1003.6 6.1 8.8 0.0
16-11-2019 05:10 5 83 8.8 1002.4 2.5 3.6 NE 1003.8 6.1 8.8 0.0
16-11-2019 05:15 5 83 8.8 1002.1 0.0 0.0 NNE 1003.5 6.1 8.8 0.0
16-11-2019 05:20 5 83 8.8 1002.2 0.0 0.0 NE 1003.6 6.1 8.8 0.0
16-11-2019 05:25 5 83 8.8 1001.9 0.0 0.0 NE 1003.3 6.1 8.8 0.0
16-11-2019 05:30 5 83 8.7 1001.8 0.0 0.0 N 1003.2 6.0 8.7 0.0
16-11-2019 05:35 5 83 8.7 1001.9 0.0 0.0 NE 1003.3 6.0 8.7 0.0
16-11-2019 05:40 5 82 8.7 1001.9 0.0 0.0 NE 1003.3 5.8 8.7 0.0
16-11-2019 05:45 5 82 8.6 1001.6 0.0 0.0 N 1003.0 5.7 8.6 0.0
16-11-2019 05:50 5 83 8.6 1001.5 1.1 2.5 NNE 1002.9 5.9 8.6 0.0
16-11-2019 05:55 5 83 8.6 1001.6 0.0 0.0 NE 1003.0 5.9 8.6 0.0
16-11-2019 06:00 5 83 8.6 1001.5 2.5 5.0 E 1002.9 5.9 8.6 0.0
16-11-2019 06:05 5 83 8.6 1001.4 0.0 0.0 E 1002.8 5.9 8.6 0.0
16-11-2019 06:10 5 83 8.6 1001.4 0.0 0.0 E 1002.8 5.9 8.6 0.0
16-11-2019 06:15 5 83 8.6 1001.4 0.0 0.0 E 1002.8 5.9 8.6 0.0
16-11-2019 06:20 5 83 8.6 1001.7 0.0 0.0 E 1003.1 5.9 8.6 0.0
16-11-2019 06:25 5 83 8.7 1001.8 0.0 0.0 NE 1003.2 6.0 8.7 0.0
16-11-2019 06:30 5 83 8.7 1001.5 0.0 0.0 N 1002.9 6.0 8.7 0.0
16-11-2019 06:35 5 83 8.7 1001.5 0.0 0.0 NE 1002.9 6.0 8.7 0.0
16-11-2019 06:40 5 83 8.5 1001.5 0.0 0.0 E 1002.9 5.8 8.5 0.0
16-11-2019 06:45 5 83 8.5 1001.5 0.0 0.0 NE 1002.9 5.8 8.5 0.0
16-11-2019 06:50 5 83 8.5 1001.4 0.0 0.0 NE 1002.8 5.8 8.5 0.0
16-11-2019 06:55 5 83 8.4 1001.5 0.0 0.0 N 1002.9 5.7 8.4 0.0
16-11-2019 07:00 5 83 8.4 1001.4 0.0 0.0 E 1002.8 5.7 8.4 0.0
16-11-2019 07:05 5 83 8.5 1001.3 0.0 0.0 E 1002.7 5.8 8.5 0.0
16-11-2019 07:10 5 83 8.6 1001.2 0.0 0.0 NE 1002.6 5.9 8.6 0.0
16-11-2019 07:15 5 84 8.6 1001.2 0.0 0.0 SE 1002.6 6.1 8.6 0.0
16-11-2019 07:20 5 84 8.6 1001.2 0.0 0.0 NE 1002.6 6.1 8.6 0.0
16-11-2019 07:25 5 84 8.7 1001.0 0.0 1.1 N 1002.4 6.2 8.7 0.0
16-11-2019 07:30 5 84 8.7 1001.3 0.0 0.0 NE 1002.7 6.2 8.7 0.0
16-11-2019 07:35 5 84 8.7 1001.4 0.0 0.0 E 1002.8 6.2 8.7 0.0
16-11-2019 07:40 5 84 8.7 1001.3 0.0 0.0 N 1002.7 6.2 8.7 0.0
16-11-2019 07:45 5 84 8.7 1001.3 0.0 0.0 NE 1002.7 6.2 8.7 0.0
16-11-2019 07:50 5 84 8.7 1001.3 0.0 0.0 NE 1002.7 6.2 8.7 0.0
16-11-2019 07:55 5 84 8.7 1001.3 0.0 0.0 N 1002.7 6.2 8.7 0.0
16-11-2019 08:00 5 84 8.7 1001.2 0.0 0.0 NE 1002.6 6.2 8.7 0.0
16-11-2019 08:05 5 84 8.7 1001.3 0.0 0.0 NE 1002.7 6.2 8.7 0.0
16-11-2019 08:10 5 84 8.7 1001.5 0.0 0.0 E 1002.9 6.2 8.7 0.0
16-11-2019 08:15 5 84 8.7 1001.5 2.5 3.6 E 1002.9 6.2 8.7 0.0
16-11-2019 08:20 5 84 8.7 1001.6 0.0 0.0 E 1003.0 6.2 8.7 0.0
16-11-2019 08:25 5 84 8.8 1001.5 0.0 0.0 NE 1002.9 6.3 8.8 0.0
16-11-2019 08:30 5 84 8.8 1001.5 0.0 0.0 E 1002.9 6.3 8.8 0.0
16-11-2019 08:35 5 84 8.8 1001.4 0.0 0.0 NE 1002.8 6.3 8.8 0.0
16-11-2019 08:40 5 84 8.8 1001.5 0.0 0.0 NE 1002.9 6.3 8.8 0.0
16-11-2019 08:45 5 84 8.8 1001.5 0.0 0.0 E 1002.9 6.3 8.8 0.0
16-11-2019 08:50 5 84 8.8 1001.5 0.0 1.1 E 1002.9 6.3 8.8 0.0
16-11-2019 08:55 5 84 8.8 1001.6 0.0 0.0 NE 1003.0 6.3 8.8 0.0
16-11-2019 09:00 5 84 8.8 1001.7 0.0 0.0 E 1003.1 6.3 8.8 0.0
16-11-2019 09:05 5 84 8.8 1001.7 0.0 0.0 E 1003.1 6.3 8.8 0.0
16-11-2019 09:10 5 84 8.8 1001.5 0.0 0.0 E 1002.9 6.3 8.8 0.3
16-11-2019 09:15 5 84 8.8 1001.7 0.0 0.0 NEE 1003.1 6.3 8.8 0.3
16-11-2019 09:20 5 84 8.8 1001.6 0.0 0.0 E 1003.0 6.3 8.8 0.6
16-11-2019 09:25 5 84 8.8 1001.7 0.0 0.0 E 1003.1 6.3 8.8 0.6
16-11-2019 09:30 5 84 8.8 1001.6 0.0 0.0 SE 1003.0 6.3 8.8 0.9
16-11-2019 09:35 5 84 8.8 1001.4 0.0 0.0 E 1002.8 6.3 8.8 1.2
16-11-2019 09:40 5 84 8.8 1001.4 0.0 0.0 E 1002.8 6.3 8.8 1.8
16-11-2019 09:45 5 84 8.8 1001.4 0.0 0.0 E 1002.8 6.3 8.8 1.8
16-11-2019 09:50 5 84 8.8 1001.4 0.0 0.0 E 1002.8 6.3 8.8 2.1
16-11-2019 09:55 5 84 8.8 1001.0 0.0 0.0 N 1002.4 6.3 8.8 2.1
16-11-2019 10:00 5 84 8.8 1000.5 0.0 0.0 NE 1001.9 6.3 8.8 2.4
16-11-2019 10:05 5 84 8.8 1000.2 0.0 0.0 N 1001.6 6.3 8.8 2.4
16-11-2019 10:10 5 85 8.8 999.9 3.6 6.1 NNW 1001.3 6.4 8.8 2.4
16-11-2019 10:15 5 85 9.0 1000.2 0.0 0.0 S 1001.6 6.6 9.0 2.7
16-11-2019 10:20 5 85 9.1 1000.5 0.0 0.0 SE 1001.9 6.7 9.1 2.4
16-11-2019 10:25 5 85 9.3 1000.6 0.0 0.0 W 1002.0 6.9 9.3 2.4
16-11-2019 10:30 5 86 9.3 1000.5 0.0 0.0 SE 1001.9 7.1 9.3 2.1
16-11-2019 10:35 5 86 9.3 1000.7 0.0 0.0 NNE 1002.1 7.1 9.3 1.8
16-11-2019 10:40 5 85 9.2 1001.0 2.5 3.6 E 1002.4 6.8 9.2 1.2
16-11-2019 10:45 5 85 9.1 1001.1 2.5 5.0 E 1002.5 6.7 9.1 1.2
16-11-2019 10:50 5 85 9.0 1001.2 0.0 1.1 E 1002.6 6.6 9.0 0.9
16-11-2019 10:55 5 85 9.0 1001.2 7.2 9.7 S 1002.6 6.6 7.8 0.9
16-11-2019 11:00 5 85 9.0 1001.0 3.6 8.6 S 1002.4 6.6 9.0 0.9
16-11-2019 11:05 5 86 9.0 1001.1 7.2 9.7 S 1002.5 6.8 7.8 1.2
16-11-2019 11:10 5 86 9.1 1001.1 7.2 8.6 S 1002.5 6.9 7.9 0.9
16-11-2019 11:15 5 86 9.1 1001.2 3.6 5.0 S 1002.6 6.9 9.1 0.6
16-11-2019 11:20 5 86 9.1 1001.2 1.1 2.5 S 1002.6 6.9 9.1 0.6
16-11-2019 11:25 5 86 9.0 1001.2 3.6 6.1 E 1002.6 6.8 9.0 0.6
16-11-2019 11:30 5 86 9.1 1001.0 7.2 9.7 SE 1002.4 6.9 7.9 0.6
16-11-2019 11:35 5 86 9.2 1000.9 7.2 8.6 SE 1002.3 7.0 8.0 0.6
16-11-2019 11:40 5 86 9.3 1001.0 6.1 8.6 S 1002.4 7.1 9.3 0.6
16-11-2019 11:45 5 86 9.3 1000.8 5.0 11.2 SSE 1002.2 7.1 9.3 0.6
16-11-2019 11:50 5 85 9.3 1000.8 3.6 6.1 S 1002.2 6.9 9.3 0.6
16-11-2019 11:55 5 85 9.2 1000.7 6.1 8.6 S 1002.1 6.8 9.2 0.6
16-11-2019 12:00 5 85 9.2 1000.8 6.1 8.6 SW 1002.2 6.8 9.2 0.3
16-11-2019 12:05 5 85 9.2 1000.7 5.0 7.2 SW 1002.1 6.8 9.2 0.0
16-11-2019 12:10 5 84 9.2 1000.7 7.2 11.2 SSW 1002.1 6.6 8.0 0.0
16-11-2019 12:15 5 84 9.2 1000.7 7.2 9.7 S 1002.1 6.6 8.0 0.0
16-11-2019 12:20 5 84 9.2 1000.8 7.2 9.7 S 1002.2 6.6 8.0 0.0
16-11-2019 12:25 5 84 9.2 1000.8 9.7 12.2 S 1002.2 6.6 6.5 0.0
16-11-2019 12:30 5 84 9.1 1000.8 8.6 9.7 SSW 1002.2 6.6 7.0 0.0
16-11-2019 12:35 5 84 9.1 1000.9 9.7 12.2 SW 1002.3 6.6 6.4 0.0
16-11-2019 12:40 5 83 9.1 1000.9 7.2 8.6 SW 1002.3 6.4 7.9 0.0
16-11-2019 12:45 5 83 9.1 1000.8 11.2 13.3 SW 1002.2 6.4 5.7 0.0
16-11-2019 12:50 5 82 9.1 1000.9 12.2 17.3 W 1002.3 6.2 5.2 0.0
16-11-2019 12:58 5 82 9.0 1001.0 12.2 14.8 SSW 1002.4 6.1 5.1 0.0
16-11-2019 13:03 5 82 9.0 1001.0 13.3 17.3 SW 1002.4 6.1 4.6 0.0
16-11-2019 13:08 5 82 8.9 1001.1 13.3 17.3 SW 1002.5 6.0 4.5 0.0
16-11-2019 13:13 5 82 8.9 1001.2 15.8 19.4 SSW 1002.6 6.0 3.5 0.0
16-11-2019 13:18 5 82 8.8 1001.2 9.7 14.8 SW 1002.6 5.9 6.1 0.0
16-11-2019 13:23 5 82 8.8 1001.3 18.4 24.5 SSW 1002.7 5.9 2.5 0.0
16-11-2019 13:28 5 81 8.7 1001.5 12.2 18.4 SWW 1002.9 5.6 4.7 0.0
16-11-2019 13:33 5 80 8.7 1001.7 8.6 12.2 SW 1003.1 5.5 6.6 0.0
16-11-2019 13:38 5 80 8.5 1001.6 17.3 23.4 W 1003.0 5.3 2.5 0.0
16-11-2019 13:43 5 79 8.4 1001.8 14.8 18.4 SSW 1003.2 5.0 3.3 0.0
16-11-2019 13:48 5 79 8.4 1001.9 11.2 17.3 SW 1003.3 5.0 4.9 0.0
16-11-2019 13:53 5 79 8.3 1001.9 11.2 13.3 SW 1003.3 4.9 4.8 0.0
16-11-2019 13:58 5 78 8.3 1001.9 12.2 15.8 SWW 1003.3 4.7 4.2 0.0
16-11-2019 14:03 5 77 8.2 1002.2 22.0 25.6 SW 1003.6 4.4 0.7 0.0
16-11-2019 14:08 5 77 8.2 1002.4 17.3 22.0 SE 1003.8 4.4 2.1 0.0
16-11-2019 14:13 5 77 8.0 1002.5 13.3 15.8 SW 1003.9 4.2 3.4 0.0
16-11-2019 14:18 5 76 7.9 1002.6 13.3 18.4 SW 1004.0 3.9 3.3 0.0
16-11-2019 14:23 5 75 7.8 1002.6 15.8 20.9 SW 1004.0 3.7 2.1 0.0
16-11-2019 14:28 5 75 7.7 1002.7 15.8 20.9 SWW 1004.1 3.6 2.0 0.0
16-11-2019 14:33 5 75 7.6 1003.0 17.3 22.0 SW 1004.4 3.5 1.4 0.0
16-11-2019 14:38 5 81 7.4 1003.1 27.0 36.7 SW 1004.5 4.4 -1.6 0.3
16-11-2019 14:43 5 81 7.4 1003.1 20.9 28.1 SW 1004.5 4.4 0.0 0.3
16-11-2019 14:48 5 81 7.3 1003.2 14.8 18.4 SW 1004.6 4.3 1.9 0.3
16-11-2019 14:53 5 81 7.2 1003.4 15.8 19.4 S 1004.8 4.2 1.4 0.3
16-11-2019 14:58 5 81 7.1 1003.6 13.3 19.4 SW 1005.0 4.1 2.3 0.3
16-11-2019 15:03 5 81 7.0 1003.5 15.8 19.4 SSW 1004.9 4.0 1.2 0.3
16-11-2019 15:08 5 81 7.0 1003.5 14.8 20.9 SW 1004.9 4.0 1.6 0.3
16-11-2019 15:13 5 81 6.9 1003.9 13.3 17.3 SW 1005.3 3.9 2.1 0.3
16-11-2019 15:18 5 81 6.8 1003.9 17.3 20.9 S 1005.3 3.8 0.4 0.3
16-11-2019 15:23 5 81 6.7 1003.8 19.4 23.4 S 1005.2 3.7 -0.5 0.3
16-11-2019 15:28 5 81 6.6 1003.9 17.3 20.9 S 1005.3 3.6 0.1 0.3
16-11-2019 15:33 5 81 6.5 1004.1 14.8 22.0 SW 1005.5 3.5 1.0 0.3
16-11-2019 15:38 5 81 6.3 1004.2 13.3 18.4 W 1005.6 3.3 1.4 0.0
16-11-2019 15:43 5 81 6.2 1004.3 19.4 27.0 SW 1005.7 3.2 -1.1 0.0
16-11-2019 15:48 5 81 6.0 1004.5 17.3 24.5 SW 1005.9 3.0 -0.6 0.0
16-11-2019 15:53 5 82 6.0 1004.5 15.8 18.4 S 1005.9 3.2 -0.1 0.0
16-11-2019 15:58 5 82 5.9 1004.5 17.3 24.5 SSW 1005.9 3.1 -0.8 0.0
16-11-2019 16:03 5 82 5.9 1004.5 20.9 25.6 SW 1005.9 3.1 -2.0 0.3
16-11-2019 16:08 5 82 5.9 1004.7 17.3 25.6 S 1006.1 3.1 -0.8 0.3
16-11-2019 16:13 5 82 5.8 1004.7 13.3 18.4 SW 1006.1 3.0 0.8 0.3
16-11-2019 16:18 5 82 5.8 1005.0 20.9 28.1 SW 1006.4 3.0 -2.1 0.3
16-11-2019 16:23 5 82 5.7 1004.9 14.8 19.4 SW 1006.3 2.9 0.0 0.3
16-11-2019 16:28 5 82 5.7 1005.0 15.8 19.4 SSW 1006.4 2.9 -0.4 0.3
16-11-2019 16:33 5 82 5.7 1005.2 18.4 24.5 SW 1006.6 2.9 -1.4 0.3
16-11-2019 16:38 5 82 5.6 1005.1 24.5 33.1 SSW 1006.5 2.8 -3.4 0.6
16-11-2019 16:43 5 82 5.6 1005.3 20.9 25.6 SW 1006.7 2.8 -2.4 0.6
16-11-2019 16:48 5 83 5.5 1005.5 20.9 29.5 SSW 1006.9 2.9 -2.5 0.6
16-11-2019 16:53 5 83 5.6 1005.6 17.3 20.9 S 1007.0 2.9 -1.1 0.6
16-11-2019 16:58 5 83 5.6 1005.7 18.4 22.0 SW 1007.1 2.9 -1.5 0.6
16-11-2019 17:03 5 83 5.7 1005.8 23.4 27.0 SW 1007.2 3.0 -3.0 0.3
16-11-2019 17:08 5 83 5.6 1005.9 18.4 30.6 SW 1007.3 2.9 -1.5 0.3
16-11-2019 17:13 5 82 5.7 1006.0 25.6 35.6 SSW 1007.4 2.9 -3.5 0.6
16-11-2019 17:18 5 82 5.7 1006.1 20.9 25.6 SWW 1007.5 2.9 -2.2 0.6
16-11-2019 17:23 5 82 5.7 1006.2 19.4 28.1 SW 1007.6 2.9 -1.8 0.6
16-11-2019 17:28 5 82 5.8 1006.3 30.6 37.8 SW 1007.7 3.0 -4.5 0.6
16-11-2019 17:33 5 82 5.7 1006.4 19.4 28.1 S 1007.8 2.9 -1.8 0.6
16-11-2019 17:38 5 82 5.8 1006.4 22.0 29.5 SW 1007.8 3.0 -2.4 0.3
16-11-2019 17:43 5 82 5.8 1006.4 18.4 22.0 SW 1007.8 3.0 -1.3 0.3
16-11-2019 17:48 5 81 5.8 1006.4 25.6 31.7 SSW 1007.8 2.8 -3.4 0.3
16-11-2019 17:53 5 81 5.9 1006.5 15.8 19.4 S 1007.9 2.9 -0.2 0.3
16-11-2019 17:58 5 81 5.9 1006.5 18.4 25.6 SW 1007.9 2.9 -1.2 0.3
16-11-2019 18:03 5 81 5.9 1006.6 18.4 27.0 W 1008.0 2.9 -1.2 0.3
16-11-2019 18:08 5 81 5.9 1006.5 23.4 28.1 SW 1007.9 2.9 -2.7 0.3
16-11-2019 18:13 5 82 6.0 1006.6 18.4 24.5 SW 1008.0 3.2 -1.0 0.0
16-11-2019 18:18 5 82 6.0 1006.7 13.3 24.5 SW 1008.1 3.2 1.0 0.0
16-11-2019 18:23 5 81 6.1 1006.8 20.9 24.5 SSW 1008.2 3.1 -1.7 0.0
16-11-2019 18:28 5 81 6.1 1007.0 19.4 31.7 SW 1008.4 3.1 -1.3 0.0
16-11-2019 18:33 5 81 6.2 1007.0 25.6 35.6 SW 1008.4 3.2 -2.9 0.0
16-11-2019 18:38 5 81 6.2 1007.0 17.3 23.4 S 1008.4 3.2 -0.4 0.0
16-11-2019 18:43 5 81 6.2 1007.0 22.0 29.5 SW 1008.4 3.2 -1.9 0.0
16-11-2019 18:48 5 81 6.3 1007.1 27.0 34.2 SW 1008.5 3.3 -3.1 0.0
16-11-2019 18:53 5 81 6.4 1007.2 23.4 27.0 SW 1008.6 3.4 -2.1 0.0
16-11-2019 18:58 5 81 6.4 1007.3 19.4 25.6 SW 1008.7 3.4 -0.9 0.0
16-11-2019 19:03 5 81 6.5 1007.3 17.3 22.0 SW 1008.7 3.5 0.0 0.0
16-11-2019 19:08 5 81 6.5 1007.6 17.3 23.4 S 1009.0 3.5 0.0 0.0
16-11-2019 19:13 5 81 6.5 1007.6 17.3 20.9 SSW 1009.0 3.5 0.0 0.0
16-11-2019 19:18 5 81 6.5 1007.7 14.8 18.4 SW 1009.1 3.5 1.0 0.0
16-11-2019 19:23 5 81 6.6 1007.9 22.0 27.0 SW 1009.3 3.6 -1.4 0.0
16-11-2019 19:28 5 80 6.6 1008.2 20.9 27.0 SW 1009.6 3.4 -1.1 0.0
16-11-2019 19:33 5 80 6.6 1008.2 14.8 19.4 S 1009.6 3.4 1.1 0.0
16-11-2019 19:38 5 80 6.5 1008.4 15.8 18.4 S 1009.8 3.3 0.5 0.0
16-11-2019 19:43 5 80 6.6 1008.5 15.8 20.9 SW 1009.9 3.4 0.7 0.0
16-11-2019 19:48 5 80 6.6 1008.5 18.4 22.0 S 1009.9 3.4 -0.3 0.0
16-11-2019 19:53 5 80 6.6 1008.5 15.8 22.0 SW 1009.9 3.4 0.7 0.0
16-11-2019 19:58 5 80 6.6 1008.7 23.4 31.7 SW 1010.1 3.4 -1.8 0.0
16-11-2019 20:03 5 80 6.5 1008.7 13.3 18.4 SW 1010.1 3.3 1.6 0.0
16-11-2019 20:08 5 80 6.4 1008.7 14.8 18.4 S 1010.1 3.2 0.9 0.0
16-11-2019 20:13 5 80 6.3 1008.7 18.4 20.9 SW 1010.1 3.1 -0.6 0.0
16-11-2019 20:18 5 80 6.3 1008.9 14.8 18.4 S 1010.3 3.1 0.7 0.0
16-11-2019 20:23 5 80 6.2 1008.9 15.8 22.0 S 1010.3 3.0 0.2 0.0
16-11-2019 20:28 5 80 6.3 1009.1 18.4 22.0 S 1010.5 3.1 -0.6 0.0
16-11-2019 20:33 5 80 6.2 1009.2 12.2 18.4 SW 1010.6 3.0 1.8 0.0
16-11-2019 20:38 5 79 6.2 1009.2 17.3 22.0 SE 1010.6 2.8 -0.4 0.0
16-11-2019 20:43 5 79 6.1 1009.4 12.2 18.4 S 1010.8 2.7 1.7 0.0
16-11-2019 20:48 5 80 6.0 1009.4 13.3 19.4 SW 1010.8 2.8 1.0 0.0
16-11-2019 20:53 5 80 6.0 1009.5 11.2 17.3 SW 1010.9 2.8 2.1 0.0
16-11-2019 20:58 5 80 6.0 1009.6 11.2 13.3 SW 1011.0 2.8 2.1 0.0
16-11-2019 21:03 5 79 6.0 1009.7 14.8 17.3 S 1011.1 2.6 0.4 0.0
16-11-2019 21:08 5 79 6.0 1009.8 12.2 15.8 S 1011.2 2.6 1.6 0.0
16-11-2019 21:13 5 79 5.9 1009.8 14.8 18.4 SW 1011.2 2.5 0.3 0.0
16-11-2019 21:18 5 78 5.9 1010.1 13.3 20.9 SW 1011.5 2.4 0.9 0.0
16-11-2019 21:23 5 78 5.8 1010.2 17.3 20.9 S 1011.6 2.3 -0.9 0.0
16-11-2019 21:28 5 78 5.8 1010.2 8.6 12.2 SW 1011.6 2.3 3.4 0.0
16-11-2019 21:33 5 78 5.7 1010.2 13.3 19.4 SW 1011.6 2.2 0.7 0.0
16-11-2019 21:38 5 78 5.7 1010.4 13.3 18.4 SW 1011.8 2.2 0.7 0.0
16-11-2019 21:43 5 78 5.7 1010.3 11.2 14.8 S 1011.7 2.2 1.8 0.0
16-11-2019 21:48 5 77 5.7 1010.4 14.8 18.4 W 1011.8 2.0 0.0 0.0
16-11-2019 21:53 5 77 5.6 1010.5 9.7 15.8 S 1011.9 1.9 2.5 0.0
16-11-2019 21:58 5 77 5.6 1010.6 11.2 15.8 S 1012.0 1.9 1.7 0.0
16-11-2019 22:03 5 77 5.5 1010.6 12.2 17.3 S 1012.0 1.8 1.0 0.0
16-11-2019 22:08 5 77 5.6 1010.7 14.8 17.3 S 1012.1 1.9 -0.1 0.0
16-11-2019 22:13 5 77 5.6 1010.7 11.2 14.8 SW 1012.1 1.9 1.7 0.0
16-11-2019 22:18 5 77 5.5 1011.0 13.3 18.4 SW 1012.4 1.8 0.4 0.0
16-11-2019 22:23 5 77 5.5 1011.1 13.3 15.8 SW 1012.5 1.8 0.4 0.0
16-11-2019 22:28 5 77 5.5 1011.0 13.3 19.4 SW 1012.4 1.8 0.4 0.0
16-11-2019 22:33 5 76 5.6 1011.1 14.8 18.4 SW 1012.5 1.7 -0.1 0.0
16-11-2019 22:38 5 76 5.5 1011.1 9.7 13.3 SW 1012.5 1.6 2.4 0.0
16-11-2019 22:43 5 76 5.5 1011.2 13.3 17.3 SW 1012.6 1.6 0.4 0.0
16-11-2019 22:48 5 76 5.6 1011.2 11.2 17.3 S 1012.6 1.7 1.7 0.0
16-11-2019 22:53 5 76 5.6 1011.2 9.7 15.8 S 1012.6 1.7 2.5 0.0
16-11-2019 22:58 5 76 5.5 1011.1 6.1 9.7 S 1012.5 1.6 5.5 0.0
16-11-2019 23:03 5 76 5.5 1011.1 12.2 15.8 S 1012.5 1.6 1.0 0.0
16-11-2019 23:08 5 76 5.4 1011.1 9.7 13.3 SW 1012.5 1.5 2.3 0.0
16-11-2019 23:13 5 76 5.3 1011.2 6.1 7.2 S 1012.6 1.4 5.3 0.0
16-11-2019 23:18 5 77 5.1 1011.1 7.2 9.7 S 1012.5 1.4 3.7 0.0
16-11-2019 23:23 5 78 5.0 1011.1 5.0 8.6 SW 1012.5 1.5 5.0 0.0
16-11-2019 23:28 5 78 5.0 1011.3 9.7 12.2 SSE 1012.7 1.5 1.8 0.0
16-11-2019 23:33 5 78 4.9 1011.2 1.1 6.1 S 1012.6 1.4 4.9 0.0
16-11-2019 23:38 5 79 4.8 1011.4 5.0 6.1 S 1012.8 1.5 4.8 0.0
16-11-2019 23:43 5 79 4.7 1011.5 6.1 8.6 S 1012.9 1.4 4.7 0.0
16-11-2019 23:48 5 80 4.7 1011.7 5.0 12.2 S 1013.1 1.6 4.7 0.0
16-11-2019 23:53 5 80 4.8 1011.8 8.6 11.2 S 1013.2 1.6 2.3 0.0
16-11-2019 23:58 5 80 4.7 1011.5 5.0 7.2 SW 1012.9 1.6 4.7 0.0

                                                                              Tabelle: 07 : 00 UHR

STATIONHÖHELUFTD.TEMP.T-MinT-MaxU%RR1RR12SSSDDFFFXWetter+WolkenBöen
UFS TW Ems 0 1003.9 9.0 7.7 9.2 82 ---- --- --- W 11 --- --- ---
UFS Deutsche Bucht 0 ------ --- --- --- --- ---- --- --- -- --- --- --- ---
Helgoland 4 1003.6 8.4 7.7 8.6 84 0.0 0 0 W 3 5 --- ---
List/Sylt 26 1003.7 7.4 7.1 7.6 98 0.0 1 0 NO 9 15 Nebel ---
Schleswig 43 1003.4 7.5 7.5 8.2 97 0.0 0 0 W 3 5 Dunst oder flacher Nebel ---
Leuchtturm Kiel 5 1003.1 8.9 8.7 9.0 91 ---- --- --- SO 14 20 --- ---
Kiel 27 1002.9 7.9 7.9 8.4 97 0.0 0 0 NO 4 9 Dunst oder flacher Nebel ---
Fehmarn 3 1003.2 8.8 8.6 9.2 94 0.0 0 0 SO 8 19 Dunst oder flacher Nebel ---
Arkona 42 1004.3 9.2 8.8 9.4 95 0.0 0 0 O 32 49 Dunst oder flacher Nebel ---
Norderney 11 1004.0 5.7 5.5 6.0 95 0.0 0 0 SW 12 21 Dunst oder flacher Nebel ---
Leuchtt. Alte Weser 32 1003.6 7.3 6.1 7.9 97 ---- --- --- W 18 --- --- ---
Cuxhaven 5 1003.7 6.6 6.6 7.5 97 0.0 0 0 W 8 10 Dunst oder flacher Nebel ---
Hamburg-Flh. 11 1003.1 6.4 4.6 7.8 96 0.0 0 0 W 2 8 Dunst oder flacher Nebel ---
Schwerin 59 1002.3 7.6 7.4 7.8 95 0.0 0 0 NO 3 10 Dunst oder flacher Nebel ---
Rostock 4 1002.8 9.0 8.6 9.1 92 0.0 0 0 O 7 17 Dunst oder flacher Nebel ---
Greifswald 2 1003.7 9.0 8.4 9.3 91 0.0 0 0 O 14 19 bedeckt ---
Emden 0 1004.7 4.6 4.0 5.3 94 0.0 0 0 W 9 17 Dunst oder flacher Nebel ---
Bremen-Flh. 5 1004.3 4.9 2.6 6.3 99 0.3 0 0 W 9 13 leichter Regen ---
Lüchow 17 1002.6 6.9 5.1 7.9 98 0.7 1 0 NO 3 12 leichter Regen ---
Marnitz 81 1002.0 7.5 6.7 7.5 96 0.0 0 0 O 5 9 Dunst oder flacher Nebel ---
Waren 70 1002.6 7.5 7.5 8.3 98 0.0 0 0 O 7 15 Dunst oder flacher Nebel ---
Neuruppin 38 1002.8 7.1 6.5 8.5 97 0.1 0 0 SO 6 12 --- ---
Angermünde 56 1003.0 8.2 7.0 9.1 89 0.0 0 0 SO 14 20 Regen ---
Münster/Osnabr.-Flh. 48 1006.1 3.1 2.2 4.2 99 0.2 0 0 S 2 5 leichter Regen ---
Hannover-Flh. 59 1004.5 4.2 1.9 6.2 98 2.2 3 0 W 12 21 leichter Regen ---
Magdeburg 76 1003.1 5.2 2.1 6.3 97 3.7 6 0 W 8 18 leichter Regen ---
Potsdam 81 1002.8 6.7 5.7 8.2 99 0.7 2 0 SO 15 26 leichter Regen ---
Berlin-Tegel 37 1002.7 8.3 7.0 9.7 94 1.0 1 0 SO 14 22 leichter Regen ---
Berlin-Tempelhof 48 1002.8 8.1 6.8 9.5 95 0.8 1 --- SO 12 21 --- ---
Berlin-Dahlem 51 1002.9 7.3 6.0 9.1 --- ---- 1 0 S 14 --- leichter Regen ---
Lindenberg 91 1003.3 8.2 7.6 9.0 96 0.8 1 0 SO 14 28 leichter Regen ---
Düsseldorf-Flh. 45 1006.5 2.2 1.7 6.3 95 0.0 0 0 O 7 11 gering bewölkt ---
Essen 150 1006.6 2.8 2.6 4.6 90 0.0 0 0 S 5 11 --- ---
Kahler Asten 839 ------ 0.0 -0.2 1.5 96 0.1 2 1 NW 13 23 gefrierender Nebel ---
Bad Lippspringe 157 1006.1 3.7 2.8 5.9 96 1.0 3 0 -- --- --- leichter Regen ---
Fritzlar 174 1006.4 3.1 2.6 4.0 93 ---- 6 0 - 4 --- leichter Regen ---
Brocken 1142 ------ -1.4 -1.5 4.4 98 ---- 5 7 W 28 33 Schneefall ---
Leipzig-Flh. 142 1003.4 4.7 2.7 6.7 99 0.0 4 0 W 6 9 Regen ---
Dresden-Flh. 227 1003.3 10.3 9.2 10.9 78 0.0 0 0 S 17 33 bedeckt ---
Cottbus 69 1003.5 8.1 5.5 8.7 92 0.0 0 0 O 8 19 --- ---
Görlitz 238 1003.2 11.5 7.1 12.6 77 0.0 0 0 S 28 46 --- ---
Aachen 231 1006.4 2.6 1.8 4.7 80 0.0 0 0 S 15 21 --- ---
Nürburg 485 1007.7 -0.3 -0.7 2.6 94 0.0 0 0 SW 5 10 --- ---
Köln/Bonn-Flh. 92 1007.2 -0.1 -0.1 5.4 96 0.0 0 0 SO 6 9 gering bewölkt ---
Gießen/Wettenberg 203 1007.1 2.5 2.3 4.2 99 0.0 1 0 SW 5 7 Dunst oder flacher Nebel ---
Wasserkuppe 921 ------ -0.5 -0.9 5.6 100 0.0 10 8 N 19 28 gefrierender Nebel ---
Meiningen 450 1006.5 1.5 0.9 4.6 95 0.1 9 0 W 4 15 leichter Regen ---
Erfurt 316 1005.0 3.0 2.3 4.3 96 0.0 7 0 W 22 30 leichter Regen ---
Gera 311 1004.2 4.5 3.4 4.9 98 0.0 3 0 W 11 17 Regen ---
Fichtelberg 1213 ------ 2.0 2.0 3.8 97 ---- --- 0 S 45 69 Nebel Sturmböen
Trier 265 1008.0 -1.3 -1.4 4.3 97 0.0 0 0 W 4 5 Nebel ---
Hahn-Flh. 497 1007.7 0.6 -0.3 2.9 94 0.0 0 0 S 4 6 --- ---
Frankfurt/M-Flh. 112 1007.6 -0.2 -0.2 4.5 98 0.0 0 0 S 5 8 Dunst oder flacher Nebel ---
OF-Wetterpark 119 1007.5 2.1 2.1 4.7 100 0.0 1 0 S 3 5 Nebel ---
Würzburg 268 1007.7 3.1 3.1 5.2 95 0.0 4 0 W 3 7 Dunst oder flacher Nebel ---
Bamberg 239 1006.8 3.8 3.8 6.0 94 0.0 4 0 S 5 14 --- ---
Hof 567 1005.2 3.1 3.1 6.1 98 0.0 2 0 SW 12 24 Dunst oder flacher Nebel ---
Weiden 438 1006.8 3.7 3.4 7.9 98 0.0 2 0 SW 8 18 Dunst oder flacher Nebel ---
Saarbrücken-Flh. 320 1008.4 -1.4 -2.6 3.1 96 0.0 0 0 O 4 8 Dunst oder flacher Nebel ---
Karlsruhe-Rheinst. 116 1008.1 0.5 -0.9 4.0 100 0.0 0 0 SW 7 11 Nebel ---
Mannheim 96 1007.7 1.4 -0.2 4.5 98 0.0 0 0 NO 4 8 Dunst oder flacher Nebel ---
Stuttgart-Flh. 371 1008.0 1.6 0.5 4.0 100 0.0 0 0 SO 4 8 Nebel ---
Öhringen 276 1007.5 2.2 2.0 4.6 97 0.0 4 0 NO 6 8 Nebel ---
Nürnberg-Flh. 314 1007.5 4.0 3.9 5.6 89 0.0 1 0 W 5 15 stark bewölkt ---
Regensburg 366 1007.2 4.3 3.1 8.0 92 0.0 1 0 N 4 10 --- ---
Straubing 351 1007.7 1.6 -1.2 6.2 100 0.0 0 0 SW 5 9 --- ---
Großer Arber 1436 ------ 0.6 0.6 5.3 98 0.0 0 2 S 27 44 Nebel ---
Lahr 155 1007.9 1.8 -0.1 3.1 99 0.0 0 0 SO 5 7 Nebel ---
Freudenstadt 797 ------ 0.8 -2.2 1.3 96 0.0 0 0 SW 3 9 Dunst oder flacher Nebel ---
Stötten 734 1007.9 1.2 1.0 2.7 100 0.0 5 0 SO 4 11 Nebel ---
Augsburg 462 1007.6 3.8 1.7 4.7 99 0.0 0 0 N 5 10 Dunst oder flacher Nebel ---
München-Flh. 444 1007.3 3.8 -1.1 6.2 98 0.0 0 0 S 2 5 bedeckt ---
Fürstenzell 476 1007.5 1.8 1.7 7.1 99 0.0 0 0 SW 9 10 Nebel ---
Feldberg/Schw. 1486 ------ -2.4 -2.4 0.3 88 0.0 0 13 W 9 13 Nebel ---
Konstanz 443 1007.2 4.9 4.4 5.2 90 0.0 0 0 W 5 7 --- ---
Kempten 705 1008.3 0.3 0.3 3.3 99 0.0 1 0 S 2 12 Nebel ---
Oberstdorf 806 ------ -1.6 -3.4 3.5 100 0.0 5 0 SW 3 10 Nebel ---
Zugspitze 2960 ------ -8.7 -9.0 -6.6 88 ---- --- 65 S 23 57 Schneefall Windböen
Hohenpeißenberg 977 ------ 0.3 0.3 3.2 100 0.0 1 0 NO 12 18 Nebel ---

                                                                                            Tabelle: 19 : 00 UHR   

STATIONHÖHELUFTD.TEMP.T-MinT-MaxU%RR1RR12SSSDDFFFXWetter+WolkenBöen
UFS TW Ems 0 1005.1 10.6 8.4 10.6 76 ---- --- --- SW 43 --- --- ---
UFS Deutsche Bucht 26 ------ --- --- --- --- ---- --- --- -- --- --- --- ---
Helgoland 4 1005.5 8.3 7.8 9.0 83 1.1 16 0 SW 37 62 leichter Regen Windböen
List/Sylt 26 1002.7 8.5 7.4 8.5 92 0.7 2 0 W 21 31 leichter Regen ---
Schleswig 43 1004.8 6.2 6.2 7.9 95 0.4 11 0 SW 23 45 Regen ---
Leuchtturm Kiel 5 1004.3 6.6 6.4 9.0 88 ---- --- --- SW 63 81 --- Sturmböen
Kiel 27 1005.3 6.1 6.1 8.1 92 0.5 9 0 SW 26 50 Regen Windböen
Fehmarn 3 1004.9 6.8 6.5 9.1 88 0.2 10 0 SW 39 60 leichter Regen Windböen
Arkona 42 1006.5 5.3 5.3 9.4 87 0.0 2 0 SW 46 61 Regen Windböen
Norderney 11 1007.0 6.3 5.5 6.7 80 0.0 9 0 SW 25 42 --- ---
Leuchtt. Alte Weser 32 1006.3 6.4 5.3 7.9 84 ---- --- --- SW 50 --- --- ---
Cuxhaven 5 1007.0 5.7 5.3 7.0 90 0.3 11 0 SW 19 45 leichter Regen ---
Hamburg-Flh 11 1008.3 5.3 4.4 6.6 88 0.2 15 0 S 24 32 Regen ---
Schwerin 59 1009.1 4.8 4.3 7.8 91 0.0 11 0 SW 23 39 --- ---
Rostock 4 1007.2 5.5 5.1 9.3 85 0.0 5 0 SW 27 47 Regen ---
Greifswald 2 1008.4 6.1 5.9 9.6 79 0.0 2 0 SW 19 44 bedeckt ---
Emden 0 1008.0 5.6 4.4 6.1 81 0.0 8 0 S 21 31 --- ---
Bremen-Flh. 5 1009.5 4.8 4.4 5.5 85 0.0 12 0 SW 18 29 gering bewölkt ---
Lüchow 17 1011.1 4.3 3.8 7.0 88 0.0 11 0 S 12 22 --- ---
Marnitz 81 1010.6 5.3 4.4 7.6 82 0.0 6 0 SW 17 34 --- ---
Waren 70 1010.2 5.8 5.1 8.2 82 0.0 3 0 SW 23 37 --- ---
Neuruppin 38 1012.1 4.6 4.2 7.7 92 0.0 4 0 S 10 20 --- ---
Angermünde 56 1012.4 5.2 5.0 10.6 84 0.0 0 0 SW 15 24 --- ---
Münster/Osnabr.-Flh. 48 1010.5 3.0 2.8 6.4 93 0.0 0 0 SO 8 10 gering bewölkt ---
Hannover-Flh. 59 1011.1 4.1 3.8 6.0 82 0.0 3 0 S 13 18 gering bewölkt ---
Magdeburg 76 1013.0 4.2 4.0 7.9 82 0.0 0 0 SW 10 18 wolkenlos ---
Potsdam 81 1013.0 3.4 3.4 7.3 97 0.0 2 0 SW 17 29 wolkenlos ---
Berlin-Tegel 37 1012.8 4.8 4.8 8.9 91 0.0 1 0 SW 14 22 wolkenlos ---
Berlin-Tempelhof 48 1013.1 5.0 5.0 8.9 89 0.0 1 --- SW 10 20 --- ---
Berlin-Dahlem 51 1013.1 4.3 4.2 8.0 --- ---- 1 0 SW 14 --- wolkenlos ---
Lindenberg 91 1013.6 4.4 4.2 11.7 88 0.0 1 0 SW 10 19 gering bewölkt ---
Düsseldorf-Flh. 45 1010.8 4.7 1.1 9.0 81 0.0 0 0 SO 13 22 gering bewölkt ---
Essen 150 1010.9 4.4 2.2 7.8 79 0.0 0 0 S 12 19 --- ---
Kahler Asten 839 ------ 0.1 -0.4 1.9 85 0.0 0 0 S 19 31 wolkenlos ---
Bad Lippspringe 157 1011.8 2.9 2.8 7.4 81 0.0 0 0 -- --- ---   ---
Fritzlar 174 1013.9 1.7 1.6 5.9 90 ---- 0 0 SO 7 --- gering bewölkt ---
Brocken 1142 ------ -2.9 -3.5 -1.5 97 ---- 1 7 SW 35 51 Nebel Windböen
Leipzig-Flh. 142 1013.7 4.5 3.5 7.6 85 0.0 0 0 S 19 26 gering bewölkt ---
Dresden-Flh. 227 1014.3 5.7 4.7 11.1 74 0.0 0 0 S 10 21 bewölkt ---
Cottbus 69 1014.0 1.5 1.5 13.1 94 0.0 0 0 S 5 7 Dunst oder flacher Nebel ---
Görlitz 238 1014.4 5.3 4.6 13.0 83 0.0 0 0 SW 11 14 --- ---
Aachen 231 1011.0 2.7 0.9 7.7 78 0.0 0 0 O 9 13 wolkenlos ---
Nürburg 485 1012.1 1.6 -1.7 5.9 88 0.0 0 0 SO 5 17   ---
Köln/Bonn-Flh. 92 1012.0 4.4 -0.9 8.1 80 0.0 0 0 SO 13 17 gering bewölkt ---
Gießen/Wettenberg 203 1013.6 3.2 0.8 7.3 97 0.0 0 0 SO 4 14 Dunst oder flacher Nebel ---
Wasserkuppe 921 ------ 0.2 -1.4 2.3 100 0.0 0 7 S 27 32 Nebel ---
Meiningen 450 1014.5 3.3 1.1 4.6 93 0.0 0 0 S 8 18 --- ---
Erfurt 316 1014.4 2.2 2.0 6.9 87 0.0 0 0 S 17 22 gering bewölkt ---
Gera 311 1014.8 2.3 2.3 7.4 91 0.0 0 0 S 15 25 --- ---
Fichtelberg 1213 ------ -0.5 -1.2 2.0 70 ---- --- 0 W 5 13 --- ---
Trier 265 1012.0 3.5 -1.5 7.7 84 0.0 0 0 SO 6 17 wolkenlos ---
Hahn-Flh. 497 1012.8 1.6 -1.7 6.1 92 0.0 0 0 SO 15 22 --- ---
Frankfurt/M-Flh. 112 1013.2 2.4 -1.1 7.4 97 0.0 0 0 NW 3 11 gering bewölkt ---
OF-Wetterpark 119 1013.1 4.4 0.4 7.8 95 0.0 0 0 O 4 12 --- ---
Würzburg 268 1013.4 5.6 2.5 6.3 89 0.0 0 0 O 7 13 --- ---
Bamberg 239 1014.2 1.2 1.2 5.7 94 0.0 0 0 O 4 8 --- ---
Hof 567 1014.6 2.7 1.8 3.6 87 0.0 0 0 SW 6 11 --- ---
Weiden 438 1014.6 3.2 1.3 5.3 86 0.0 0 0 SO 7 11 --- ---
Saarbrücken-Flh. 320 1012.4 2.0 -1.5 6.5 91 0.0 0 0 O 11 15 gering bewölkt ---
Karlsruhe-Rheinst. 116 1012.7 1.3 0.5 6.9 98 0.0 0 0 SO 5 9 Dunst oder flacher Nebel ---
Mannheim 96 1013.1 1.3 1.0 6.9 97 0.0 0 0 W 6 12 Dunst oder flacher Nebel ---
Stuttgart-Flh. 371 1013.1 3.2 1.6 8.2 91 0.0 0 0 NW 4 9 gering bewölkt ---
Öhringen 276 1012.7 5.2 1.0 8.2 91 0.0 0 0 S 2 16 --- ---
Nürnberg-Flh. 314 1013.9 3.0 3.0 8.0 90 0.0 0 0 O 4 9 gering bewölkt ---
Regensburg 366 1014.4 5.5 3.9 6.9 81 0.0 0 0 O 6 10 --- ---
Straubing 351 1014.2 5.2 1.6 6.3 88 0.0 0 0 N 4 11 --- ---
Großer Arber 1436 ------ 1.8 0.2 4.4 78 0.0 0 0 S 25 32 --- ---
Lahr 155 1011.7 3.2 1.4 9.5 89 0.0 0 0 N 4 16 --- ---
Freudenstadt 797 ------ 1.2 0.7 5.1 97 0.0 0 0 NO 3 14 Nebel ---
Stötten 734 1013.3 1.8 0.6 4.8 100 0.0 0 0 O 9 19 Dunst oder flacher Nebel ---
Augsburg 462 1013.8 5.0 1.6 6.8 88 0.0 0 0 SO 6 13 --- ---
München-Flh. 444 1014.2 5.0 1.5 5.6 87 0.0 0 0 O 9 17 bedeckt ---
Fürstenzell 476 1014.4 3.4 1.8 4.2 97 0.0 0 0 N 6 13 Dunst oder flacher Nebel ---
Feldberg/Schw. 1486 ------ -0.7 -2.5 -0.2 67 0.0 0 12 S 12 15 wolkenlos ---
Konstanz 443 1012.7 4.8 4.7 8.9 87 0.0 0 0 N 7 10 --- ---
Kempten 705 1013.1 2.9 0.1 6.9 90 0.0 0 0 O 2 8 --- ---
Oberstdorf 806 ------ 2.1 -1.6 5.8 97 0.0 0 0 - 0 9 --- ---
Zugspitze 2960 ------ -9.5 -10.4 -8.0 67 ---- --- --- SO 38 57 Schneefall Windböen
Hohenpeißenberg 977 ------ 0.8 0.3 2.3 99 0.0 0 0 SO 4 11   ---

 

  • Wetterzustand
  • Windrichtung und -geschwindigkeit
  • Luftdruck
  • relative Luftfeuchtigkeit
  • Sichtweite
  • Gesamtbedeckungsgrad
  • Niederschlag
  • Sonnenscheindauer

 Höhe:     m über NN
Luftd.:   auf Meereshöhe reduzierter Luftdruck in hPa
TEMP.:   Lufttemperatur in Grad Celsius
T-MIN:   Minimumtemperatur der Luft in 2m Höhe in Grad Celsius, von 18 UTC Vortag bis 06 UTC heute
T-MAX:  Maximumtemperatur der Luft in 2m Höhe in Grad Celsius, von 18 UTC Vortag bis 06 UTC heute
RR1:     Niederschlagsmenge, einstündig, mm ist gleich Liter pro
RR12:   Niederschlagsmenge, 12 stündig, 18 UTC Vortag bis 06 UTC heute in mm ist gleich Liter pro
SSS:     Gesamtschneehöhe
DD:      Windrichtung
FF:       Windgeschwindigkeit letztes 10-Minutenmittel in km/h
FX:       höchste Windspitze während der letzten Stunde in km/h
---:      Wert nicht vorhanden

 

2009-2019

Unwetterwarnungen

 

  Radarbild           

aktueller Radarfilm Deutschland

  Europa-Meteoalarm